Time;durP1;ratioP1;P1;durP2;ratioP2;P2;SDS_P1;SDS_P2;PMS_P1;PMS_P2;Temp;Humidity;BMP_temperature;BMP_pressure;BME280_temperature;BME280_humidity;BME280_pressure;Samples;Min_cycle;Max_cycle;Signal;HPM_P1;HPM_P2
2021/12/20 00:00:23;;;;;;;2.35;1.88;;;;;;;4.04;51.08;96779.31;3398521;29;20175;-72
2021/12/20 00:02:05;;;;;;;4.82;1.90;;;;;;;4.05;51.05;96783.56;3404266;29;20529;-74
2021/12/20 00:03:46;;;;;;;3.17;1.90;;;;;;;4.05;50.95;96780.91;3390263;29;20503;-72
2021/12/20 00:05:26;;;;;;;1.83;1.48;;;;;;;4.01;50.71;96777.13;3401288;29;20047;-73
2021/12/20 00:07:07;;;;;;;2.08;1.52;;;;;;;4.01;50.95;96777.94;3404180;29;20415;-73
2021/12/20 00:08:48;;;;;;;3.22;1.65;;;;;;;4.05;50.81;96783.56;3390096;29;20044;-72
2021/12/20 00:10:28;;;;;;;2.28;2.08;;;;;;;4.05;50.99;96783.56;3391779;29;20119;-73
2021/12/20 00:12:09;;;;;;;2.15;1.95;;;;;;;4.03;50.94;96780.34;3387251;29;20044;-73
2021/12/20 00:13:50;;;;;;;2.38;2.17;;;;;;;4.03;50.77;96781.16;3401018;29;20071;-72
2021/12/20 00:15:30;;;;;;;3.63;1.63;;;;;;;4.04;50.74;96787.22;3395920;29;20598;-73
2021/12/20 00:17:11;;;;;;;2.05;1.52;;;;;;;4.04;50.79;96792.50;3403972;29;20141;-72
2021/12/20 00:18:52;;;;;;;2.92;1.80;;;;;;;3.99;50.90;96797.63;3402273;29;20040;-73
2021/12/20 00:20:32;;;;;;;2.70;2.08;;;;;;;3.99;50.84;96793.16;3394576;29;20080;-72
2021/12/20 00:22:13;;;;;;;2.47;1.63;;;;;;;3.98;51.00;96793.41;3390941;29;20052;-73
2021/12/20 00:23:54;;;;;;;2.80;1.73;;;;;;;3.97;51.27;96797.03;3363594;29;20452;-73
2021/12/20 00:25:34;;;;;;;2.92;1.77;;;;;;;3.97;51.24;96808.38;3371331;29;20045;-71
2021/12/20 00:27:19;;;;;;;2.28;1.40;;;;;;;3.96;51.05;96806.00;3361400;29;20083;-73
2021/12/20 00:29:00;;;;;;;2.40;1.60;;;;;;;3.93;50.86;96802.78;3386705;29;20047;-73
2021/12/20 00:30:40;;;;;;;3.38;2.00;;;;;;;3.96;50.64;96806.00;3397000;29;20127;-72
2021/12/20 00:32:21;;;;;;;2.00;1.50;;;;;;;3.94;50.91;96817.53;3404439;29;20075;-73
2021/12/20 00:34:02;;;;;;;1.83;1.58;;;;;;;3.93;51.06;96817.78;3403818;29;20043;-71
2021/12/20 00:35:43;;;;;;;1.83;1.65;;;;;;;3.91;51.12;96815.34;3404002;29;20043;-73
2021/12/20 00:41:23;;;;;;;1.02;1.02;;;;;;;3.85;51.31;96821.53;3393934;29;20040;-72
2021/12/20 00:43:04;;;;;;;1.20;1.10;;;;;;;3.82;51.28;96816.72;3390677;29;20047;-71
2021/12/20 00:44:45;;;;;;;1.60;1.20;;;;;;;3.80;51.13;96823.22;3376527;29;20650;-72
2021/12/20 00:46:26;;;;;;;2.17;1.20;;;;;;;3.76;51.29;96828.13;3387377;29;20047;-72
2021/12/20 00:48:07;;;;;;;1.30;1.20;;;;;;;3.75;51.44;96823.88;3376555;29;20048;-72
2021/12/20 00:49:48;;;;;;;0.90;0.90;;;;;;;3.74;51.64;96832.78;3387757;29;20055;-72
2021/12/20 00:51:29;;;;;;;2.35;1.48;;;;;;;3.73;51.85;96839.09;3389993;29;20036;-72
2021/12/20 00:53:12;;;;;;;2.35;1.15;;;;;;;3.69;51.77;96833.47;3389692;29;20051;-72
2021/12/20 00:54:52;;;;;;;1.73;1.35;;;;;;;3.66;51.63;96838.38;3390013;29;20120;-71
2021/12/20 00:56:33;;;;;;;0.95;0.93;;;;;;;3.66;51.70;96833.09;3390186;29;20048;-71
2021/12/20 00:58:14;;;;;;;3.22;1.30;;;;;;;3.65;51.74;96836.78;3390316;29;20066;-72
2021/12/20 00:59:54;;;;;;;1.73;1.10;;;;;;;3.66;51.83;96852.34;3390429;29;20135;-72
2021/12/20 01:01:35;;;;;;;2.38;1.38;;;;;;;3.66;52.07;96846.25;3391085;29;20079;-72
2021/12/20 01:03:16;;;;;;;1.33;1.23;;;;;;;3.66;51.92;96851.53;3390113;29;20131;-72
2021/12/20 01:04:57;;;;;;;1.60;1.10;;;;;;;3.65;51.76;96849.94;3390228;29;20048;-71
2021/12/20 01:06:37;;;;;;;1.30;1.02;;;;;;;3.63;51.81;96851.97;3390457;29;20096;-72
2021/12/20 01:08:20;;;;;;;1.35;1.20;;;;;;;3.61;51.78;96854.03;3390222;29;20525;-72
2021/12/20 01:10:05;;;;;;;3.20;1.10;;;;;;;3.59;51.67;96859.53;3392584;29;20075;-71
2021/12/20 01:11:51;;;;;;;1.15;1.00;;;;;;;3.59;51.80;96859.53;3393068;29;20048;-72
2021/12/20 01:13:38;;;;;;;3.10;1.20;;;;;;;3.58;51.86;96851.84;3390152;29;20048;-70
2021/12/20 01:15:45;;;;;;;1.38;1.05;;;;;;;3.57;51.76;96858.13;3390341;29;20526;-70
2021/12/20 01:17:27;;;;;;;3.17;1.30;;;;;;;3.54;51.70;96869.91;3389906;29;20124;-70
2021/12/20 01:19:07;;;;;;;2.47;1.17;;;;;;;3.54;52.22;96871.72;3390228;29;20640;-70
2021/12/20 01:20:49;;;;;;;1.63;1.20;;;;;;;3.54;52.27;96861.19;3390250;29;20112;-70
2021/12/20 01:22:29;;;;;;;2.15;1.45;;;;;;;3.52;52.29;96889.59;3400678;29;20491;-70
2021/12/20 01:24:10;;;;;;;1.20;1.10;;;;;;;3.48;52.20;96879.50;3402877;29;20048;-71
2021/12/20 01:25:51;;;;;;;1.30;1.20;;;;;;;3.48;52.08;96890.03;3402354;29;20511;-72
2021/12/20 01:27:31;;;;;;;2.15;1.10;;;;;;;3.47;51.98;96887.59;3402881;29;20039;-72
2021/12/20 01:29:12;;;;;;;1.65;1.35;;;;;;;3.43;52.16;96884.63;3403579;29;20051;-72
2021/12/20 01:30:53;;;;;;;2.70;1.20;;;;;;;3.36;52.22;96889.13;3402691;29;20048;-70
2021/12/20 01:32:34;;;;;;;1.30;0.98;;;;;;;3.31;52.00;96894.25;3393094;29;20040;-73
2021/12/20 01:34:15;;;;;;;1.10;1.05;;;;;;;3.29;52.08;96896.28;3375800;29;20044;-70
2021/12/20 01:35:56;;;;;;;0.98;0.95;;;;;;;3.30;52.02;96895.25;3387186;29;20047;-70
2021/12/20 01:37:37;;;;;;;1.77;1.20;;;;;;;3.31;51.79;96902.13;3389951;29;20055;-71
2021/12/20 01:39:18;;;;;;;5.55;1.90;;;;;;;3.29;51.54;96904.19;3390709;29;20445;-71
2021/12/20 01:40:59;;;;;;;1.33;1.13;;;;;;;3.34;51.55;96895.63;3402501;29;20099;-71
2021/12/20 01:42:39;;;;;;;1.00;0.85;;;;;;;3.34;51.46;96901.69;3389272;29;20047;-72
2021/12/20 01:44:21;;;;;;;1.48;1.10;;;;;;;3.36;51.44;96901.50;3389834;29;20040;-72
2021/12/20 01:46:02;;;;;;;1.23;1.10;;;;;;;3.35;51.09;96903.28;3389341;29;20059;-72
2021/12/20 01:47:47;;;;;;;1.70;1.00;;;;;;;3.35;51.03;96911.19;3389610;29;20046;-72
2021/12/20 01:49:30;;;;;;;1.55;1.00;;;;;;;3.35;51.19;96905.13;3391576;29;20051;-70
2021/12/20 01:52:52;;;;;;;1.08;0.98;;;;;;;3.28;50.97;96907.84;3400974;29;20087;-71
2021/12/20 01:54:33;;;;;;;1.85;1.13;;;;;;;3.26;50.84;96899.34;3402846;29;20054;-71
2021/12/20 01:56:13;;;;;;;1.15;1.02;;;;;;;3.32;50.87;96905.56;3402563;29;20062;-70
2021/12/20 01:57:54;;;;;;;1.58;1.30;;;;;;;3.34;50.84;96914.06;3402804;29;20040;-71
2021/12/20 01:59:39;;;;;;;1.48;1.33;;;;;;;3.36;50.68;96923.34;3402703;29;20047;-70
2021/12/20 02:01:20;;;;;;;1.67;1.10;;;;;;;3.36;50.82;96920.72;3400792;29;20391;-71
2021/12/20 02:03:02;;;;;;;1.13;1.05;;;;;;;3.36;50.68;96923.34;3389424;29;20405;-71
2021/12/20 02:04:47;;;;;;;1.40;1.30;;;;;;;3.38;50.34;96925.75;3389793;29;20492;-72
2021/12/20 02:06:35;;;;;;;1.45;1.10;;;;;;;3.37;50.49;96929.41;3375694;29;20484;-70
2021/12/20 02:08:28;;;;;;;2.38;1.20;;;;;;;3.37;50.60;96922.31;3387560;29;20456;-71
2021/12/20 02:10:09;;;;;;;1.48;1.00;;;;;;;3.37;50.47;96929.41;3398926;29;20035;-72
2021/12/20 02:11:50;;;;;;;1.48;1.05;;;;;;;3.36;50.33;96931.25;3386140;29;20036;-71
2021/12/20 02:13:31;;;;;;;1.48;1.02;;;;;;;3.36;50.29;96933.88;3399746;29;20047;-70
2021/12/20 02:15:12;;;;;;;1.10;1.00;;;;;;;3.35;50.19;96940.16;3402380;29;20499;-70
2021/12/20 02:16:53;;;;;;;1.45;1.10;;;;;;;3.34;50.32;96941.19;3402233;29;20290;-70
2021/12/20 02:18:34;;;;;;;1.35;1.00;;;;;;;3.31;50.27;96944.25;3402507;29;20054;-70
2021/12/20 02:20:29;;;;;;;2.05;1.10;;;;;;;3.34;50.13;96943.00;3395350;29;20464;-71
2021/12/20 02:22:10;;;;;;;1.40;1.30;;;;;;;3.32;50.16;96948.47;3389303;29;20064;-71
2021/12/20 02:23:50;;;;;;;1.02;0.98;;;;;;;3.33;50.11;96950.13;3389418;29;20566;-70
2021/12/20 02:25:32;;;;;;;2.20;0.90;;;;;;;3.33;50.05;96941.38;3388823;29;20104;-72
2021/12/20 02:27:12;;;;;;;1.75;1.17;;;;;;;3.33;49.74;96952.75;3389579;29;20052;-72
2021/12/20 02:28:55;;;;;;;2.35;1.50;;;;;;;3.29;50.04;96946.28;3389201;29;20640;-72
2021/12/20 02:37:03;;;;;;;0.80;0.80;;;;;;;3.30;49.76;96968.94;3402319;29;20047;-72
2021/12/20 02:38:47;;;;;;;2.63;1.40;;;;;;;3.28;50.03;96978.91;3402367;29;20046;-72
2021/12/20 02:40:27;;;;;;;1.35;0.82;;;;;;;3.25;49.79;96976.69;3402279;29;20115;-73
2021/12/20 02:42:15;;;;;;;0.70;0.70;;;;;;;3.24;49.72;96975.88;3398731;29;20048;-71
2021/12/20 02:43:58;;;;;;;0.80;0.80;;;;;;;3.21;49.80;96978.16;3389147;29;20052;-71
2021/12/20 02:45:40;;;;;;;1.13;1.02;;;;;;;3.19;49.86;96985.44;3388942;29;20079;-72
2021/12/20 02:47:28;;;;;;;1.02;0.90;;;;;;;3.17;49.92;96993.53;3389235;29;20044;-72
2021/12/20 02:49:12;;;;;;;14.88;1.23;;;;;;;3.13;49.75;97000.28;3389246;29;20040;-71
2021/12/20 02:50:56;;;;;;;1.00;0.93;;;;;;;3.09;49.68;96996.44;3387551;29;20040;-71
2021/12/20 02:52:37;;;;;;;0.90;0.80;;;;;;;3.09;49.68;96996.44;3396719;29;20500;-71
2021/12/20 02:54:21;;;;;;;0.90;0.90;;;;;;;3.08;49.77;97004.56;3391503;29;20046;-72
2021/12/20 02:56:01;;;;;;;1.50;1.40;;;;;;;3.04;49.75;96999.69;3391575;29;20052;-71
2021/12/20 02:57:42;;;;;;;1.52;1.10;;;;;;;3.03;49.59;96998.09;3391914;29;20047;-69
2021/12/20 02:59:23;;;;;;;1.02;0.90;;;;;;;2.99;49.56;96996.91;3391779;29;20421;-71
2021/12/20 03:01:04;;;;;;;1.60;1.50;;;;;;;3.01;49.48;97007.22;3391622;29;20507;-72
2021/12/20 03:02:45;;;;;;;1.25;1.15;;;;;;;2.99;49.79;97015.31;3393834;29;20049;-72
2021/12/20 03:04:26;;;;;;;2.35;1.08;;;;;;;2.93;49.63;97010.13;3392584;29;20074;-73
2021/12/20 03:06:18;;;;;;;2.63;1.60;;;;;;;2.95;49.63;97015.97;3391672;29;20047;-72
2021/12/20 03:07:58;;;;;;;1.90;1.33;;;;;;;2.94;49.62;97015.16;3391563;29;20059;-72
2021/12/20 03:09:43;;;;;;;2.78;1.35;;;;;;;2.87;49.64;97014.41;3391887;29;20407;-73
2021/12/20 03:11:26;;;;;;;1.42;1.10;;;;;;;2.89;49.37;97015.00;3377474;29;20041;-72
2021/12/20 03:13:07;;;;;;;3.28;1.20;;;;;;;2.88;49.63;97016.00;3399577;29;20388;-73
2021/12/20 03:14:50;;;;;;;2.08;1.75;;;;;;;2.90;49.59;97024.50;3405102;29;20127;-72
2021/12/20 03:16:31;;;;;;;1.90;1.42;;;;;;;2.90;49.72;97028.97;3390446;29;20048;-73
2021/12/20 03:18:12;;;;;;;2.63;1.58;;;;;;;2.87;49.79;97022.28;3401723;29;20047;-74
2021/12/20 03:19:53;;;;;;;3.53;1.38;;;;;;;2.88;49.43;97031.78;3404534;29;20055;-72
2021/12/20 03:21:33;;;;;;;2.00;1.15;;;;;;;2.87;49.33;97035.44;3404901;29;20620;-71
2021/12/20 03:23:14;;;;;;;3.72;1.52;;;;;;;2.88;49.34;97033.63;3391561;29;20523;-72
2021/12/20 03:24:55;;;;;;;1.65;1.23;;;;;;;2.86;49.36;97038.28;3391199;29;20044;-73
2021/12/20 03:26:36;;;;;;;1.85;1.10;;;;;;;2.87;49.25;97035.44;3391316;29;20044;-73
2021/12/20 03:28:17;;;;;;;2.20;1.40;;;;;;;2.85;49.24;97048.00;3401151;29;20044;-74
2021/12/20 03:29:57;;;;;;;2.63;1.48;;;;;;;2.82;49.25;97045.78;3404482;29;20126;-73
2021/12/20 03:31:38;;;;;;;1.52;1.15;;;;;;;2.77;49.07;97046.41;3402391;29;20047;-71
2021/12/20 03:33:20;;;;;;;2.75;1.27;;;;;;;2.72;49.58;97043.59;3394044;29;20500;-70
2021/12/20 03:35:00;;;;;;;1.30;0.82;;;;;;;2.72;49.35;97048.06;3391236;29;20131;-70
2021/12/20 03:36:41;;;;;;;1.17;1.08;;;;;;;2.71;49.56;97051.69;3391471;29;20086;-70
2021/12/20 03:38:22;;;;;;;1.95;1.52;;;;;;;2.71;49.50;97056.97;3391593;29;20411;-71
2021/12/20 03:40:03;;;;;;;3.15;1.30;;;;;;;2.69;49.48;97054.56;3391349;29;20122;-71
2021/12/20 03:41:44;;;;;;;1.35;1.23;;;;;;;2.69;49.56;97048.50;3393529;29;20492;-73
2021/12/20 03:43:31;;;;;;;1.80;1.70;;;;;;;2.67;49.60;97050.50;3404421;29;20039;-72
2021/12/20 03:45:15;;;;;;;2.35;2.13;;;;;;;2.64;49.67;97069.34;3390171;29;20588;-72
2021/12/20 03:46:55;;;;;;;2.72;1.25;;;;;;;2.59;49.45;97065.50;3401736;29;20043;-71
2021/12/20 03:48:36;;;;;;;1.70;1.17;;;;;;;2.59;49.72;97073.41;3390114;29;20051;-71
2021/12/20 03:50:17;;;;;;;1.50;1.05;;;;;;;2.58;49.73;97074.44;3401304;29;20040;-72
2021/12/20 03:51:58;;;;;;;2.17;1.38;;;;;;;2.56;49.51;97068.56;3402133;29;20191;-72
2021/12/20 03:53:38;;;;;;;1.77;1.45;;;;;;;2.56;49.72;97081.72;3404149;29;20052;-73
2021/12/20 03:55:19;;;;;;;2.58;1.52;;;;;;;2.55;49.68;97071.38;3404255;29;20040;-73
2021/12/20 03:57:00;;;;;;;4.18;1.33;;;;;;;2.52;49.30;97075.22;3390062;29;20515;-71
2021/12/20 03:58:41;;;;;;;1.40;0.93;;;;;;;2.51;49.31;97084.16;3401383;29;20109;-71
2021/12/20 04:00:22;;;;;;;1.90;1.08;;;;;;;2.49;49.41;97075.66;3404180;29;20059;-72
2021/12/20 04:02:03;;;;;;;1.95;1.15;;;;;;;2.45;49.56;97086.78;3401054;29;20040;-72
2021/12/20 04:03:44;;;;;;;1.20;1.08;;;;;;;2.38;49.46;97082.38;3391135;29;20051;-71
2021/12/20 04:05:24;;;;;;;1.80;1.03;;;;;;;2.37;49.37;97088.63;3390362;29;20492;-72
2021/12/20 04:07:05;;;;;;;3.08;1.35;;;;;;;2.34;49.55;97089.03;3391189;29;20055;-71
2021/12/20 04:08:47;;;;;;;2.08;1.33;;;;;;;2.34;49.39;97089.03;3390876;29;20072;-71
2021/12/20 04:10:28;;;;;;;2.85;1.35;;;;;;;2.30;49.56;97103.63;3376846;29;20044;-72
2021/12/20 04:12:09;;;;;;;1.98;1.33;;;;;;;2.34;49.56;97104.00;3387667;29;20047;-71
2021/12/20 04:13:50;;;;;;;1.88;1.10;;;;;;;2.34;49.63;97096.91;3390912;29;20101;-71
2021/12/20 04:15:31;;;;;;;2.25;1.15;;;;;;;2.35;49.71;97100.34;3390378;29;20044;-72
2021/12/20 04:17:12;;;;;;;2.20;1.33;;;;;;;2.34;49.66;97111.88;3390785;29;20500;-72
2021/12/20 04:18:53;;;;;;;2.22;1.40;;;;;;;2.33;49.24;97102.41;3390736;29;20088;-72
2021/12/20 04:20:33;;;;;;;2.08;1.55;;;;;;;2.34;49.28;97110.06;3390972;29;20096;-71
2021/12/20 04:22:19;;;;;;;2.25;1.42;;;;;;;2.32;49.44;97111.28;3394267;29;20054;-71
2021/12/20 04:23:59;;;;;;;2.30;1.58;;;;;;;2.29;48.89;97115.13;3403769;29;20502;-72
2021/12/20 04:25:40;;;;;;;1.95;1.40;;;;;;;2.26;49.25;97122.63;3403707;29;20048;-72
2021/12/20 04:27:21;;;;;;;1.85;1.20;;;;;;;2.26;49.07;97118.16;3403325;29;20116;-71
2021/12/20 04:29:02;;;;;;;2.00;1.77;;;;;;;2.26;49.07;97120.00;3403593;29;20443;-72
2021/12/20 04:30:43;;;;;;;2.67;1.55;;;;;;;2.26;48.98;97130.50;3399599;29;20421;-71
2021/12/20 04:32:23;;;;;;;1.48;1.38;;;;;;;2.27;49.03;97126.84;3393070;29;20082;-71
2021/12/20 04:34:04;;;;;;;4.78;1.20;;;;;;;2.27;48.98;97121.59;3403530;29;20045;-72
2021/12/20 04:35:45;;;;;;;1.95;1.75;;;;;;;2.27;49.04;97134.75;3403484;29;20043;-75
2021/12/20 04:37:26;;;;;;;1.55;1.30;;;;;;;2.25;49.25;97136.78;3387739;29;20039;-73
2021/12/20 04:39:09;;;;;;;3.30;1.60;;;;;;;2.27;49.14;97145.25;3400692;29;20050;-73
2021/12/20 04:40:50;;;;;;;2.88;1.58;;;;;;;2.25;49.07;97142.03;3403694;29;20044;-73
2021/12/20 04:42:31;;;;;;;3.55;1.77;;;;;;;2.24;49.10;97140.41;3397769;29;20103;-72
2021/12/20 04:44:11;;;;;;;2.17;1.30;;;;;;;2.25;49.17;97152.56;3390263;29;20051;-72
2021/12/20 04:45:52;;;;;;;3.28;1.70;;;;;;;2.25;49.01;97136.78;3390409;29;20051;-73
2021/12/20 04:47:33;;;;;;;1.30;1.10;;;;;;;2.23;48.97;97150.13;3390305;29;20452;-72
2021/12/20 04:49:13;;;;;;;4.90;1.80;;;;;;;2.23;49.02;97154.56;3390450;29;20075;-71
2021/12/20 04:50:54;;;;;;;2.15;1.25;;;;;;;2.20;49.02;97144.47;3390083;29;20504;-73
2021/12/20 04:52:35;;;;;;;2.63;1.65;;;;;;;2.24;48.98;97166.69;3394359;29;20035;-73
2021/12/20 04:54:16;;;;;;;1.45;1.30;;;;;;;2.22;48.93;97158.19;3402670;29;20138;-71
2021/12/20 04:55:57;;;;;;;2.70;1.35;;;;;;;2.20;48.95;97154.97;3402968;29;20491;-70
2021/12/20 04:57:38;;;;;;;1.75;1.60;;;;;;;2.18;48.79;97166.50;3402819;29;20044;-72
2021/12/20 04:59:19;;;;;;;2.10;1.30;;;;;;;2.11;49.04;97163.06;3401162;29;20048;-70
2021/12/20 05:01:00;;;;;;;3.38;1.75;;;;;;;2.17;48.88;97174.59;3400980;29;20082;-70
2021/12/20 05:02:40;;;;;;;2.40;1.80;;;;;;;2.16;48.94;97181.63;3393797;29;20362;-71
2021/12/20 05:04:21;;;;;;;2.85;2.03;;;;;;;2.14;48.89;97181.06;3390433;29;20579;-70
2021/12/20 05:06:02;;;;;;;3.60;1.70;;;;;;;2.14;49.06;97181.06;3386780;29;20040;-70
2021/12/20 05:07:44;;;;;;;4.22;1.63;;;;;;;2.12;48.88;97169.94;3400041;29;20499;-70
2021/12/20 05:09:28;;;;;;;6.45;2.05;;;;;;;2.12;48.96;97180.44;3400776;29;20040;-70
2021/12/20 05:11:09;;;;;;;2.35;1.60;;;;;;;2.12;48.93;97179.66;3389038;29;20500;-71
2021/12/20 05:12:50;;;;;;;2.53;1.85;;;;;;;2.11;49.04;97186.69;3398988;29;20043;-73
2021/12/20 05:14:30;;;;;;;3.42;1.88;;;;;;;2.10;49.11;97198.22;3402862;29;20046;-73
2021/12/20 05:16:11;;;;;;;3.40;1.55;;;;;;;2.11;48.99;97202.47;3403207;29;20480;-71
2021/12/20 05:17:52;;;;;;;2.72;1.63;;;;;;;2.07;49.10;97200.47;3403115;29;20496;-73
2021/12/20 05:19:33;;;;;;;2.92;2.10;;;;;;;2.11;49.08;97220.84;3400459;29;20526;-71
2021/12/20 05:21:14;;;;;;;2.50;1.60;;;;;;;2.09;49.20;97215.00;3403083;29;20042;-71
2021/12/20 05:22:56;;;;;;;1.63;1.35;;;;;;;2.08;48.92;97218.63;3401039;29;20066;-73
2021/12/20 05:24:37;;;;;;;;;;;;;;;2.21;48.98;97224.91;3402319;29;20122;-72
2021/12/20 05:26:18;;;;;;;2.00;1.52;;;;;;;2.13;48.78;97223.28;3401054;29;19938;-73
2021/12/20 05:27:59;;;;;;;2.42;1.75;;;;;;;2.10;48.83;97224.50;3402779;29;20047;-71
2021/12/20 05:29:40;;;;;;;2.47;1.75;;;;;;;2.09;48.63;97222.06;3388968;29;20119;-73
2021/12/20 05:31:21;;;;;;;3.25;1.75;;;;;;;2.06;48.84;97225.91;3397969;29;20499;-74
2021/12/20 05:33:03;;;;;;;2.33;2.13;;;;;;;2.05;49.01;97229.53;3395246;29;20044;-71
2021/12/20 05:34:43;;;;;;;3.17;1.90;;;;;;;2.06;48.71;97230.34;3394084;29;20396;-71
2021/12/20 05:36:24;;;;;;;3.05;1.77;;;;;;;2.04;48.82;97233.19;3402535;29;20132;-72
2021/12/20 05:38:05;;;;;;;3.38;1.70;;;;;;;2.06;48.89;97239.03;3388771;29;20048;-77
2021/12/20 05:39:46;;;;;;;2.78;1.52;;;;;;;2.08;48.71;97233.59;3386421;29;20399;-74
2021/12/20 05:41:26;;;;;;;2.60;2.10;;;;;;;2.04;48.79;97233.19;3400106;29;20039;-75
2021/12/20 05:43:07;;;;;;;3.95;2.25;;;;;;;2.10;48.74;97240.25;3392933;29;20047;-76
2021/12/20 05:44:50;;;;;;;2.65;1.70;;;;;;;2.11;48.83;97235.81;3389565;29;20044;-73
2021/12/20 05:46:31;;;;;;;4.88;1.80;;;;;;;2.10;48.84;97245.50;3397331;29;20052;-73
2021/12/20 05:48:12;;;;;;;3.35;1.90;;;;;;;2.10;48.83;97256.03;3386852;29;20443;-76
2021/12/20 05:49:53;;;;;;;3.28;1.48;;;;;;;2.12;49.23;97259.28;3399449;29;20035;-77
2021/12/20 05:51:34;;;;;;;2.58;1.48;;;;;;;2.12;48.99;97254.00;3381750;29;20040;-75
2021/12/20 05:53:14;;;;;;;4.28;1.60;;;;;;;2.12;48.77;97259.28;3397895;29;20472;-78
2021/12/20 05:54:55;;;;;;;5.00;2.35;;;;;;;2.10;48.53;97263.91;3398795;29;20043;-84
2021/12/20 05:56:36;;;;;;;7.55;2.28;;;;;;;2.08;48.89;97263.28;3390209;29;20044;-82
2021/12/20 05:58:17;;;;;;;3.90;1.83;;;;;;;2.09;48.88;97262.31;3377311;29;20069;-83
2021/12/20 05:59:58;;;;;;;4.38;2.17;;;;;;;2.15;48.58;97266.75;3387945;29;20051;-79
2021/12/20 06:01:39;;;;;;;3.20;1.83;;;;;;;2.14;48.57;97265.13;3382348;29;20128;-75
2021/12/20 06:03:20;;;;;;;4.68;2.35;;;;;;;2.15;48.58;97279.06;3388523;29;20099;-76
2021/12/20 06:05:00;;;;;;;1.92;1.63;;;;;;;2.09;48.70;97269.34;3397343;29;20116;-75
2021/12/20 06:06:41;;;;;;;3.97;2.03;;;;;;;2.10;48.68;97281.50;3389372;29;20071;-77
2021/12/20 06:08:22;;;;;;;3.60;2.03;;;;;;;2.09;48.67;97274.59;3389593;29;20135;-76
2021/12/20 06:10:03;;;;;;;3.13;1.90;;;;;;;2.09;48.57;97280.69;3390432;29;20503;-77
2021/12/20 06:11:44;;;;;;;2.97;2.03;;;;;;;2.07;48.47;97281.91;3389393;29;20072;-77
2021/12/20 06:13:25;;;;;;;2.10;1.83;;;;;;;2.11;48.50;97281.28;3391402;29;20488;-78
2021/12/20 06:15:08;;;;;;;2.25;1.73;;;;;;;2.10;48.42;97287.56;3390620;29;20575;-77
2021/12/20 06:16:49;;;;;;;3.72;1.83;;;;;;;2.10;48.35;97299.88;3393656;29;20048;-77
2021/12/20 06:18:30;;;;;;;4.15;2.28;;;;;;;2.05;48.40;97282.09;3389860;29;20047;-76
2021/12/20 06:20:12;;;;;;;3.78;2.33;;;;;;;2.05;48.62;97307.56;3389060;29;20404;-76
2021/12/20 06:21:53;;;;;;;;;;;;;;;2.14;48.69;97309.81;3389474;29;20499;-77
2021/12/20 06:23:34;;;;;;;2.83;1.67;;;;;;;2.04;48.72;97314.63;3390973;29;19919;-77
2021/12/20 06:25:14;;;;;;;3.95;2.10;;;;;;;2.00;48.65;97313.41;3390503;29;20056;-76
2021/12/20 06:26:55;;;;;;;4.38;2.05;;;;;;;1.99;48.83;97322.28;3390689;29;20136;-76
2021/12/20 06:28:36;;;;;;;7.20;2.25;;;;;;;1.98;48.71;97322.47;3390213;29;20072;-77
2021/12/20 06:30:17;;;;;;;4.93;2.20;;;;;;;1.95;48.43;97318.44;3392328;29;20064;-75
2021/12/20 06:31:57;;;;;;;4.50;2.05;;;;;;;1.96;48.75;97327.91;3392618;29;20039;-78
2021/12/20 06:33:38;;;;;;;3.50;2.00;;;;;;;1.93;48.78;97320.44;3389313;29;20044;-79
2021/12/20 06:35:19;;;;;;;4.70;2.38;;;;;;;1.94;48.77;97333.41;3377355;29;20439;-78
2021/12/20 06:37:00;;;;;;;7.47;4.05;;;;;;;1.96;48.60;97343.69;3395809;29;20396;-76
2021/12/20 06:38:45;;;;;;;2.75;2.13;;;;;;;1.96;48.53;97335.81;3388355;29;20062;-77
2021/12/20 06:40:27;;;;;;;3.67;1.95;;;;;;;1.96;48.22;97338.44;3397755;29;20063;-77
2021/12/20 06:42:08;;;;;;;5.72;2.63;;;;;;;1.92;48.30;97345.91;3401146;29;20460;-77
2021/12/20 06:43:48;;;;;;;3.22;1.85;;;;;;;1.90;48.28;97334.78;3389071;29;20060;-78
2021/12/20 06:45:29;;;;;;;4.10;2.13;;;;;;;1.91;48.05;97352.19;3374353;29;20037;-77
2021/12/20 06:47:10;;;;;;;4.85;2.58;;;;;;;1.88;48.23;97346.50;3399080;29;20139;-76
2021/12/20 06:48:51;;;;;;;5.00;2.10;;;;;;;1.92;48.17;97358.22;3388172;29;20460;-77
2021/12/20 06:50:32;;;;;;;2.67;1.70;;;;;;;1.94;48.24;97361.47;3397643;29;20044;-77
2021/12/20 06:52:13;;;;;;;3.63;2.17;;;;;;;1.93;48.16;97367.72;3400776;29;20040;-76
2021/12/20 06:53:55;;;;;;;2.90;2.17;;;;;;;1.91;48.13;97364.47;3388994;29;20080;-76
2021/12/20 06:55:36;;;;;;;4.28;2.33;;;;;;;1.92;47.92;97368.75;3391260;29;20044;-76
2021/12/20 06:57:16;;;;;;;4.60;2.55;;;;;;;1.87;48.13;97368.53;3399511;29;20452;-75
2021/12/20 06:58:57;;;;;;;3.17;2.33;;;;;;;1.90;47.83;97368.13;3400599;29;20543;-75
2021/12/20 07:00:38;;;;;;;3.08;2.20;;;;;;;1.89;47.50;97369.94;3401404;29;20063;-75
2021/12/20 07:02:19;;;;;;;3.05;2.25;;;;;;;1.91;48.00;97373.19;3393833;29;20495;-77
2021/12/20 07:04:01;;;;;;;2.95;2.08;;;;;;;1.97;47.95;97389.97;3390069;29;20154;-76
2021/12/20 07:05:42;;;;;;;5.10;2.95;;;;;;;2.00;47.78;97386.16;3390617;29;20100;-75
2021/12/20 07:07:23;;;;;;;4.88;2.17;;;;;;;1.98;47.62;97383.69;3362037;29;20045;-75
2021/12/20 07:09:03;;;;;;;3.65;2.72;;;;;;;1.93;47.44;97391.34;3385065;29;20136;-76
2021/12/20 07:10:44;;;;;;;3.40;1.70;;;;;;;1.98;47.51;97394.22;3389357;29;20051;-76
2021/12/20 07:12:25;;;;;;;3.75;2.50;;;;;;;1.96;47.57;97398.84;3397013;29;20040;-76
2021/12/20 07:14:06;;;;;;;4.43;2.97;;;;;;;1.96;47.61;97402.31;3388629;29;20147;-75
2021/12/20 07:15:46;;;;;;;6.75;3.78;;;;;;;1.96;47.40;97409.34;3389169;29;20532;-76
2021/12/20 07:17:27;;;;;;;6.20;2.90;;;;;;;1.95;47.23;97400.66;3388940;29;20047;-75
2021/12/20 07:19:08;;;;;;;8.25;3.22;;;;;;;1.95;47.54;97405.91;3399019;29;20039;-80
2021/12/20 07:20:49;;;;;;;4.88;2.83;;;;;;;1.92;47.29;97400.25;3402895;29;20503;-78
2021/12/20 07:22:29;;;;;;;4.35;2.70;;;;;;;1.96;47.43;97420.69;3399025;29;20102;-78
2021/12/20 07:24:10;;;;;;;7.20;3.15;;;;;;;1.99;47.43;97423.91;3389641;29;20051;-79
2021/12/20 07:25:51;;;;;;;4.43;2.55;;;;;;;1.95;47.38;97413.81;3389645;29;20067;-78
2021/12/20 07:27:32;;;;;;;4.32;2.60;;;;;;;1.93;47.37;97415.00;3362516;29;20045;-78
2021/12/20 07:29:13;;;;;;;6.45;2.95;;;;;;;1.92;47.12;97418.66;3369797;29;20189;-79
2021/12/20 07:30:54;;;;;;;9.13;4.03;;;;;;;1.90;47.43;97412.78;3371690;29;20526;-78
2021/12/20 07:32:35;;;;;;;4.65;2.42;;;;;;;1.93;47.13;97417.63;3386148;29;20108;-76
2021/12/20 07:34:16;;;;;;;8.23;3.17;;;;;;;1.92;47.30;97419.44;3374630;29;20052;-77
2021/12/20 07:35:56;;;;;;;4.70;2.53;;;;;;;1.97;47.16;97429.38;3386147;29;20498;-77
2021/12/20 07:37:37;;;;;;;4.75;2.65;;;;;;;1.97;47.02;97432.00;3388987;29;20044;-79
2021/12/20 07:39:18;;;;;;;3.88;2.15;;;;;;;1.95;47.08;97421.69;3374732;29;20537;-78
2021/12/20 07:40:58;;;;;;;5.35;2.25;;;;;;;1.95;47.47;97439.25;3398957;29;20411;-79
2021/12/20 07:42:39;;;;;;;3.67;1.85;;;;;;;1.89;47.49;97435.59;3385828;29;20036;-79
2021/12/20 07:44:21;;;;;;;5.35;2.17;;;;;;;1.87;47.46;97439.44;3393362;29;20044;-76
2021/12/20 07:46:01;;;;;;;4.50;2.53;;;;;;;1.86;47.29;97441.25;3395881;29;20115;-77
2021/12/20 07:47:42;;;;;;;3.88;2.17;;;;;;;1.84;47.24;97440.63;3390945;29;20092;-78
2021/12/20 07:49:24;;;;;;;;;;;;;;;2.01;47.42;97442.91;3396549;29;20056;-79
2021/12/20 07:51:05;;;;;;;4.35;2.45;;;;;;;1.97;47.24;97445.13;3404451;29;19922;-78
2021/12/20 07:52:46;;;;;;;5.25;2.70;;;;;;;1.98;47.10;97452.00;3400683;29;20103;-77
2021/12/20 07:54:27;;;;;;;7.25;3.22;;;;;;;1.98;47.09;97456.44;3387865;29;20508;-77
2021/12/20 07:56:08;;;;;;;7.43;3.25;;;;;;;1.93;47.29;97449.16;3397817;29;20090;-77
2021/12/20 07:57:50;;;;;;;4.90;3.03;;;;;;;1.96;47.22;97460.09;3392236;29;20139;-78
2021/12/20 07:59:31;;;;;;;;;;;;;;;2.09;47.21;97456.72;3377302;29;20043;-76
2021/12/20 08:01:12;;;;;;;5.15;2.97;;;;;;;2.01;46.82;97456.84;3379677;29;19965;-77
2021/12/20 08:02:53;;;;;;;6.55;3.42;;;;;;;2.01;46.81;97467.38;3385193;29;20119;-76
2021/12/20 08:04:34;;;;;;;8.70;3.10;;;;;;;1.97;46.73;97474.03;3400288;29;20055;-76
2021/12/20 08:06:15;;;;;;;7.70;3.05;;;;;;;1.94;46.56;97477.06;3396652;29;20130;-77
2021/12/20 08:07:56;;;;;;;5.90;3.15;;;;;;;1.93;46.85;97470.16;3392518;29;20039;-75
2021/12/20 08:09:36;;;;;;;11.95;2.88;;;;;;;1.93;46.90;97475.41;3390974;29;20068;-77
2021/12/20 08:11:17;;;;;;;4.70;2.78;;;;;;;1.92;46.97;97479.06;3391118;29;20116;-76
2021/12/20 08:12:58;;;;;;;7.88;3.60;;;;;;;1.96;46.98;97477.66;3394732;29;20050;-75
2021/12/20 08:14:39;;;;;;;4.75;2.92;;;;;;;1.99;46.82;97479.91;3390230;29;20083;-76